Auburn, Pennsylvania
Current Conditions -  °F | °C
As of 1:54 AM on Friday 19 Dec 2014 (Local Time) from KRDG Reporting Station
Overcast Overcast  
Wind Chill: 27°   Ceiling: 3100
Heat Index: 35°   Visibility: 10mi
Dew Point: 24°   Wind: 12mph
Humidity: 64%   Direction: 290°WNW
Pressure: 30.02"   Gusts: NA
Location:  40.6°N, 76.09°W
Report Text: KRDG 190654Z AUTO 29010KT 10SM OVC031 02/M04 A3002 RMK AO2 SLP175 T00171044
Loading
Personal Weather Stations






























Interactive Weather Map New forecast layout! Learn more

10-Day Weather Forecast

Advertisements
Track Severe Weather on mobile